Time;durP1;ratioP1;P1;durP2;ratioP2;P2;SDS_P1;SDS_P2;PMS_P1;PMS_P2;Temp;Humidity;BMP_temperature;BMP_pressure;BME280_temperature;BME280_humidity;BME280_pressure;Samples;Min_cycle;Max_cycle;Signal;HPM_P1;HPM_P2
2022/03/13 00:00:54;;;;;;;9.00;7.20;;;;;;;;;;4816299;29;20501;-75
2022/03/13 00:03:28;;;;;;;5.18;4.78;;;;;;;;;;4817783;29;20050;-75
2022/03/13 00:05:57;;;;;;;5.30;4.05;;;;;;;;;;4817143;29;20073;-75
2022/03/13 00:08:27;;;;;;;10.00;6.10;;;;;;;;;;4816645;29;20066;-75
2022/03/13 00:10:57;;;;;;;4.82;4.28;;;;;;;;;;4817262;29;20050;-75
2022/03/13 00:13:31;;;;;;;9.20;4.68;;;;;;;;;;4817416;29;20050;-75
2022/03/13 00:16:01;;;;;;;4.78;4.38;;;;;;;;;;4817300;29;20050;-75
2022/03/13 00:18:32;;;;;;;5.05;4.57;;;;;;;;;;4817257;29;20453;-75
2022/03/13 00:21:03;;;;;;;6.47;3.95;;;;;;;;;;4816972;29;20540;-75
2022/03/13 00:23:32;;;;;;;5.68;5.00;;;;;;;;;;4817620;29;20400;-75
2022/03/13 00:26:00;;;;;;;8.73;3.85;;;;;;;;;;4816292;29;20042;-75
2022/03/13 00:28:28;;;;;;;4.32;3.97;;;;;;;;;;4816698;29;20404;-75
2022/03/13 00:31:02;;;;;;;7.45;5.38;;;;;;;;;;4817554;29;20133;-75
2022/03/13 00:33:30;;;;;;;6.75;4.82;;;;;;;;;;4827419;29;20046;-75
2022/03/13 00:35:58;;;;;;;7.93;4.88;;;;;;;;;;4835038;29;20069;-75
2022/03/13 00:38:26;;;;;;;5.10;4.40;;;;;;;;;;4836268;29;20058;-75
2022/03/13 00:40:55;;;;;;;7.85;4.22;;;;;;;;;;4821431;29;20050;-75
2022/03/13 00:43:24;;;;;;;10.43;5.53;;;;;;;;;;4839344;29;20399;-75
2022/03/13 00:45:53;;;;;;;4.38;3.58;;;;;;;;;;4838794;29;20054;-75
2022/03/13 00:48:22;;;;;;;3.92;3.63;;;;;;;;;;4838317;29;20042;-75
2022/03/13 00:50:51;;;;;;;6.43;4.20;;;;;;;;;;4822894;29;20066;-75
2022/03/13 00:53:18;;;;;;;12.15;4.63;;;;;;;;;;4820041;29;20580;-75
2022/03/13 00:55:46;;;;;;;3.25;3.03;;;;;;;;;;4820234;29;20141;-75
2022/03/13 00:58:15;;;;;;;6.28;3.85;;;;;;;;;;4819317;29;20062;-75
2022/03/13 01:00:43;;;;;;;4.65;3.20;;;;;;;;;;4820226;29;20050;-75
2022/03/13 01:03:18;;;;;;;5.00;4.38;;;;;;;;;;4820533;29;20051;-75
2022/03/13 01:05:46;;;;;;;3.83;3.47;;;;;;;;;;4819738;29;20508;-75
2022/03/13 01:08:14;;;;;;;3.50;3.30;;;;;;;;;;4829903;29;20073;-75
2022/03/13 01:10:42;;;;;;;5.35;3.70;;;;;;;;;;4832960;29;20060;-75
2022/03/13 01:13:10;;;;;;;3.08;2.88;;;;;;;;;;4838384;29;20575;-75
2022/03/13 01:15:40;;;;;;;10.38;3.72;;;;;;;;;;4838809;29;20476;-75
2022/03/13 01:18:10;;;;;;;7.38;6.70;;;;;;;;;;4837949;29;20057;-75
2022/03/13 01:20:38;;;;;;;9.02;4.82;;;;;;;;;;4838170;29;20074;-75
2022/03/13 01:23:08;;;;;;;7.00;5.03;;;;;;;;;;4838875;29;20071;-75
2022/03/13 01:25:36;;;;;;;3.83;3.60;;;;;;;;;;4817507;29;20058;-75
2022/03/13 01:28:04;;;;;;;7.07;4.90;;;;;;;;;;4803332;29;20065;-75
2022/03/13 01:30:32;;;;;;;7.45;3.67;;;;;;;;;;4820560;29;20058;-75
2022/03/13 01:33:00;;;;;;;4.18;3.58;;;;;;;;;;4820131;29;20073;-75
2022/03/13 01:35:29;;;;;;;3.10;2.88;;;;;;;;;;4819858;29;20065;-75
2022/03/13 01:37:58;;;;;;;4.80;4.40;;;;;;;;;;4819016;29;20054;-75
2022/03/13 01:40:26;;;;;;;6.43;5.25;;;;;;;;;;4819066;29;20073;-75
2022/03/13 01:42:55;;;;;;;4.95;3.55;;;;;;;;;;4819937;29;20058;-75
2022/03/13 01:45:25;;;;;;;4.80;2.75;;;;;;;;;;4819417;29;20065;-74
2022/03/13 01:47:53;;;;;;;7.75;5.63;;;;;;;;;;4830711;29;20069;-75
2022/03/13 01:50:21;;;;;;;3.45;3.15;;;;;;;;;;4830522;29;20062;-75
2022/03/13 01:52:50;;;;;;;5.38;4.03;;;;;;;;;;4837681;29;20076;-75
2022/03/13 01:55:18;;;;;;;7.35;4.00;;;;;;;;;;4837474;29;20050;-75
2022/03/13 01:57:47;;;;;;;4.43;3.38;;;;;;;;;;4837106;29;20070;-74
2022/03/13 02:00:18;;;;;;;3.47;3.25;;;;;;;;;;4837638;29;20078;-74
2022/03/13 02:02:47;;;;;;;5.13;4.15;;;;;;;;;;4837883;29;20060;-75
2022/03/13 02:05:30;;;;;;;4.47;3.42;;;;;;;;;;4837062;29;20050;-75
2022/03/13 02:07:59;;;;;;;4.57;2.88;;;;;;;;;;4837107;29;20065;-74
2022/03/13 02:10:31;;;;;;;4.25;3.97;;;;;;;;;;4837114;29;20504;-75
2022/03/13 02:12:59;;;;;;;4.13;3.92;;;;;;;;;;4837299;29;20062;-75
2022/03/13 02:15:32;;;;;;;8.23;3.83;;;;;;;;;;4837529;29;20145;-75
2022/03/13 02:18:06;;;;;;;4.03;3.10;;;;;;;;;;4837504;29;20061;-75
2022/03/13 02:20:39;;;;;;;4.07;3.70;;;;;;;;;;4837100;29;20141;-74
2022/03/13 02:23:15;;;;;;;7.57;5.45;;;;;;;;;;4837648;29;20054;-74
2022/03/13 02:25:43;;;;;;;8.65;7.80;;;;;;;;;;4836125;29;20061;-74
2022/03/13 02:28:14;;;;;;;5.32;4.80;;;;;;;;;;4820129;29;20053;-74
2022/03/13 02:30:42;;;;;;;7.47;5.70;;;;;;;;;;4837387;29;20068;-74
2022/03/13 02:33:11;;;;;;;4.88;3.75;;;;;;;;;;4837071;29;20053;-74
2022/03/13 02:35:39;;;;;;;6.65;4.00;;;;;;;;;;4830220;29;20054;-74
2022/03/13 02:38:07;;;;;;;7.85;6.20;;;;;;;;;;4818218;29;20401;-75
2022/03/13 02:40:35;;;;;;;4.70;3.50;;;;;;;;;;4817787;29;20065;-74
2022/03/13 02:43:03;;;;;;;5.82;4.60;;;;;;;;;;4818983;29;20062;-74
2022/03/13 02:45:32;;;;;;;7.00;4.38;;;;;;;;;;4818598;29;20493;-74
2022/03/13 02:48:18;;;;;;;5.72;4.38;;;;;;;;;;4830896;29;20072;-74
2022/03/13 02:51:37;;;;;;;6.60;6.00;;;;;;;;;;4818786;29;20062;-74
2022/03/13 02:55:00;;;;;;;7.82;5.20;;;;;;;;;;4804436;29;20055;-74
2022/03/13 02:57:55;;;;;;;6.40;4.97;;;;;;;;;;4817306;29;20058;-74
2022/03/13 03:00:45;;;;;;;7.22;4.40;;;;;;;;;;4818048;29;20061;-75
2022/03/13 03:03:14;;;;;;;6.60;5.28;;;;;;;;;;4818453;29;20058;-74
2022/03/13 03:05:43;;;;;;;6.03;4.70;;;;;;;;;;4817734;29;20690;-74
2022/03/13 03:08:11;;;;;;;4.88;4.22;;;;;;;;;;4817764;29;20046;-74
2022/03/13 03:10:40;;;;;;;5.97;5.45;;;;;;;;;;4818094;29;20252;-74
2022/03/13 03:13:08;;;;;;;7.78;5.07;;;;;;;;;;4817981;29;20053;-74
2022/03/13 03:15:36;;;;;;;5.80;4.22;;;;;;;;;;4818657;29;20062;-74
2022/03/13 03:18:05;;;;;;;6.38;4.07;;;;;;;;;;4817450;29;20050;-74
2022/03/13 03:20:34;;;;;;;5.38;4.88;;;;;;;;;;4817878;29;20141;-74
2022/03/13 03:23:03;;;;;;;5.80;4.95;;;;;;;;;;4818438;29;20065;-73
2022/03/13 03:25:33;;;;;;;5.30;4.10;;;;;;;;;;4816956;29;20483;-73
2022/03/13 03:28:01;;;;;;;12.68;5.88;;;;;;;;;;4817921;29;20054;-74
2022/03/13 03:30:30;;;;;;;5.57;4.72;;;;;;;;;;4818162;29;20525;-73
2022/03/13 03:33:02;;;;;;;5.75;4.40;;;;;;;;;;4817758;29;20050;-73
2022/03/13 03:35:30;;;;;;;4.63;4.22;;;;;;;;;;4817994;29;20548;-74
2022/03/13 03:37:58;;;;;;;8.93;4.90;;;;;;;;;;4817483;29;20058;-73
2022/03/13 03:40:28;;;;;;;8.55;4.85;;;;;;;;;;4817362;29;20058;-73
2022/03/13 03:43:01;;;;;;;5.32;4.93;;;;;;;;;;4817948;29;20062;-73
2022/03/13 03:45:30;;;;;;;4.32;3.92;;;;;;;;;;4817645;29;20061;-73
2022/03/13 03:47:59;;;;;;;7.50;5.18;;;;;;;;;;4817330;29;20058;-73
2022/03/13 03:50:27;;;;;;;5.65;4.60;;;;;;;;;;4819702;29;20058;-73
2022/03/13 03:52:56;;;;;;;10.25;4.47;;;;;;;;;;4817628;29;20069;-73
2022/03/13 03:55:25;;;;;;;5.40;4.88;;;;;;;;;;4817394;29;20695;-73
2022/03/13 03:57:53;;;;;;;4.88;4.50;;;;;;;;;;4829244;29;20066;-73
2022/03/13 04:00:25;;;;;;;8.43;5.25;;;;;;;;;;4835989;29;20054;-73
2022/03/13 04:02:54;;;;;;;6.20;4.63;;;;;;;;;;4831488;29;20054;-73
2022/03/13 04:05:23;;;;;;;7.25;5.47;;;;;;;;;;4816952;29;20061;-73
2022/03/13 04:07:51;;;;;;;6.13;4.40;;;;;;;;;;4816798;29;20516;-73
2022/03/13 04:10:19;;;;;;;5.25;4.50;;;;;;;;;;4817191;29;20069;-73
2022/03/13 04:12:47;;;;;;;6.43;5.38;;;;;;;;;;4818301;29;20416;-73
2022/03/13 04:15:15;;;;;;;6.82;4.20;;;;;;;;;;4821665;29;20057;-73
2022/03/13 04:17:45;;;;;;;7.80;5.38;;;;;;;;;;4820980;29;20058;-73
2022/03/13 04:20:13;;;;;;;7.38;5.95;;;;;;;;;;4820576;29;20058;-73
2022/03/13 04:22:41;;;;;;;6.32;4.50;;;;;;;;;;4821423;29;20058;-73
2022/03/13 04:25:10;;;;;;;8.90;5.05;;;;;;;;;;4820122;29;20054;-73
2022/03/13 04:27:38;;;;;;;8.10;6.72;;;;;;;;;;4821086;29;20050;-73
2022/03/13 04:30:08;;;;;;;8.43;4.90;;;;;;;;;;4820844;29;20088;-73
2022/03/13 04:32:36;;;;;;;4.32;3.95;;;;;;;;;;4820862;29;20046;-73
2022/03/13 04:35:04;;;;;;;3.85;3.55;;;;;;;;;;4820579;29;20062;-73
2022/03/13 04:37:32;;;;;;;11.18;3.80;;;;;;;;;;4820477;29;20070;-73
2022/03/13 04:40:00;;;;;;;4.00;3.80;;;;;;;;;;4819726;29;20061;-73
2022/03/13 04:42:28;;;;;;;5.45;4.50;;;;;;;;;;4821076;29;20070;-73
2022/03/13 04:44:56;;;;;;;7.10;4.85;;;;;;;;;;4820465;29;20051;-73
2022/03/13 04:47:30;;;;;;;6.15;5.28;;;;;;;;;;4828733;29;20061;-73
2022/03/13 04:49:59;;;;;;;4.68;3.75;;;;;;;;;;4829126;29;20058;-73
2022/03/13 04:52:28;;;;;;;8.75;5.40;;;;;;;;;;4820298;29;20073;-73
2022/03/13 04:54:56;;;;;;;4.15;3.85;;;;;;;;;;4820474;29;20782;-72
2022/03/13 04:57:24;;;;;;;9.10;5.38;;;;;;;;;;4820102;29;20805;-73
2022/03/13 04:59:52;;;;;;;7.28;5.18;;;;;;;;;;4820311;29;20736;-73
2022/03/13 05:02:20;;;;;;;10.32;5.22;;;;;;;;;;4821029;29;20050;-73
2022/03/13 05:04:48;;;;;;;7.95;5.32;;;;;;;;;;4820050;29;20501;-73
2022/03/13 05:07:21;;;;;;;5.65;5.18;;;;;;;;;;4804367;29;20054;-73
2022/03/13 05:09:48;;;;;;;7.32;5.20;;;;;;;;;;4819322;29;20057;-73
2022/03/13 05:12:21;;;;;;;5.93;4.95;;;;;;;;;;4819862;29;20409;-72
2022/03/13 05:14:50;;;;;;;6.25;4.97;;;;;;;;;;4820528;29;20051;-73
2022/03/13 05:17:18;;;;;;;6.82;4.93;;;;;;;;;;4820034;29;20887;-73
2022/03/13 05:19:46;;;;;;;9.75;4.75;;;;;;;;;;4820015;29;20083;-73
2022/03/13 05:22:14;;;;;;;20.05;6.13;;;;;;;;;;4827221;29;20101;-72
2022/03/13 05:24:42;;;;;;;6.30;3.60;;;;;;;;;;4831533;29;20057;-72
2022/03/13 05:27:10;;;;;;;10.48;4.38;;;;;;;;;;4820540;29;20054;-73
2022/03/13 05:29:38;;;;;;;10.38;6.72;;;;;;;;;;4837235;29;20050;-73
2022/03/13 05:32:07;;;;;;;6.80;4.40;;;;;;;;;;4836025;29;20054;-73
2022/03/13 05:34:35;;;;;;;4.70;3.97;;;;;;;;;;4838540;29;20057;-73
2022/03/13 05:37:03;;;;;;;5.00;4.55;;;;;;;;;;4838122;29;20492;-73
2022/03/13 05:39:32;;;;;;;7.65;4.75;;;;;;;;;;4837835;29;20058;-73
2022/03/13 05:42:00;;;;;;;6.55;4.57;;;;;;;;;;4837600;29;20049;-73
2022/03/13 05:44:30;;;;;;;8.88;7.38;;;;;;;;;;4837899;29;20058;-72
2022/03/13 05:47:00;;;;;;;7.85;5.28;;;;;;;;;;4838509;29;20046;-72
2022/03/13 05:49:28;;;;;;;5.22;4.30;;;;;;;;;;4831770;29;20054;-73
2022/03/13 05:51:56;;;;;;;6.40;5.15;;;;;;;;;;4819014;29;20046;-73
2022/03/13 05:54:24;;;;;;;9.57;6.05;;;;;;;;;;4820016;29;20061;-73
2022/03/13 05:56:53;;;;;;;5.75;4.45;;;;;;;;;;4818702;29;20046;-72
2022/03/13 05:59:22;;;;;;;3.90;3.58;;;;;;;;;;4819977;29;20084;-73
2022/03/13 06:01:50;;;;;;;5.43;4.72;;;;;;;;;;4819558;29;20141;-72
2022/03/13 06:04:19;;;;;;;5.35;4.95;;;;;;;;;;4819414;29;20050;-72
2022/03/13 06:06:47;;;;;;;3.95;3.65;;;;;;;;;;4819441;29;20047;-73
2022/03/13 06:09:15;;;;;;;8.63;5.20;;;;;;;;;;4819320;29;20050;-73
2022/03/13 06:11:42;;;;;;;5.25;4.65;;;;;;;;;;4819014;29;20050;-73
2022/03/13 06:14:10;;;;;;;7.45;5.38;;;;;;;;;;4819214;29;20417;-72
2022/03/13 06:16:38;;;;;;;10.57;6.25;;;;;;;;;;4819493;29;20066;-72
2022/03/13 06:19:06;;;;;;;10.20;4.82;;;;;;;;;;4820257;29;20065;-72
2022/03/13 06:21:34;;;;;;;6.38;4.68;;;;;;;;;;4837204;29;20508;-72
2022/03/13 06:24:02;;;;;;;5.75;5.13;;;;;;;;;;4821002;29;20050;-73
2022/03/13 06:26:31;;;;;;;7.47;5.60;;;;;;;;;;4819213;29;20496;-72
2022/03/13 06:29:00;;;;;;;5.57;4.60;;;;;;;;;;4819131;29;20054;-73
2022/03/13 06:31:29;;;;;;;5.38;4.45;;;;;;;;;;4819531;29;20054;-73
2022/03/13 06:33:58;;;;;;;5.47;4.35;;;;;;;;;;4819147;29;20054;-73
2022/03/13 06:36:27;;;;;;;5.50;5.00;;;;;;;;;;4817669;29;20667;-73
2022/03/13 06:38:56;;;;;;;4.85;4.05;;;;;;;;;;4819526;29;20065;-73
2022/03/13 06:41:27;;;;;;;7.30;4.38;;;;;;;;;;4818698;29;20046;-73
2022/03/13 06:43:56;;;;;;;6.85;4.47;;;;;;;;;;4819165;29;20050;-74
2022/03/13 06:46:23;;;;;;;4.60;4.20;;;;;;;;;;4819254;29;20054;-74
2022/03/13 06:48:52;;;;;;;7.63;4.88;;;;;;;;;;4836012;29;20085;-74
2022/03/13 06:51:20;;;;;;;7.97;5.78;;;;;;;;;;4819372;29;20061;-74
2022/03/13 06:53:48;;;;;;;7.18;5.43;;;;;;;;;;4818680;29;20046;-74
2022/03/13 06:56:16;;;;;;;7.90;5.35;;;;;;;;;;4818063;29;20493;-74
2022/03/13 06:58:43;;;;;;;9.35;5.90;;;;;;;;;;4818723;29;20046;-74
2022/03/13 07:01:11;;;;;;;12.15;6.55;;;;;;;;;;4818584;29;20050;-74
2022/03/13 07:03:40;;;;;;;9.55;5.20;;;;;;;;;;4819149;29;20046;-74
2022/03/13 07:06:08;;;;;;;6.00;5.47;;;;;;;;;;4818131;29;20055;-74
2022/03/13 07:08:36;;;;;;;7.35;4.57;;;;;;;;;;4818257;29;20065;-74
2022/03/13 07:11:04;;;;;;;6.57;5.30;;;;;;;;;;4818308;29;20062;-74
2022/03/13 07:13:32;;;;;;;11.27;5.85;;;;;;;;;;4801752;29;20057;-74
2022/03/13 07:16:01;;;;;;;6.00;4.72;;;;;;;;;;4818108;29;20047;-79
2022/03/13 07:18:30;;;;;;;5.38;4.88;;;;;;;;;;4802203;29;20038;-74
2022/03/13 07:21:03;;;;;;;7.53;4.80;;;;;;;;;;4817683;29;20058;-75
2022/03/13 07:23:31;;;;;;;8.63;4.15;;;;;;;;;;4818532;29;20485;-75
2022/03/13 07:25:59;;;;;;;7.13;5.18;;;;;;;;;;4817047;29;20058;-75
2022/03/13 07:28:27;;;;;;;8.20;4.20;;;;;;;;;;4829836;29;20050;-74
2022/03/13 07:30:55;;;;;;;6.53;5.88;;;;;;;;;;4836615;29;20054;-75
2022/03/13 07:33:23;;;;;;;8.38;5.85;;;;;;;;;;4835137;29;20054;-75
2022/03/13 07:35:55;;;;;;;10.07;5.10;;;;;;;;;;4835863;29;20053;-75
2022/03/13 07:38:23;;;;;;;5.57;4.97;;;;;;;;;;4836061;29;20062;-75
2022/03/13 07:40:51;;;;;;;5.38;4.85;;;;;;;;;;4835327;29;20058;-75
2022/03/13 07:43:19;;;;;;;12.52;7.95;;;;;;;;;;4836367;29;20061;-75
2022/03/13 07:45:49;;;;;;;8.93;5.70;;;;;;;;;;4835923;29;20056;-75
2022/03/13 07:48:17;;;;;;;6.00;4.82;;;;;;;;;;4835600;29;20066;-75
2022/03/13 07:50:45;;;;;;;5.55;4.10;;;;;;;;;;4828597;29;20057;-76
2022/03/13 07:53:13;;;;;;;6.75;5.65;;;;;;;;;;4827941;29;20058;-76
2022/03/13 07:55:42;;;;;;;6.25;5.40;;;;;;;;;;4835265;29;20050;-76
2022/03/13 07:58:11;;;;;;;6.50;4.72;;;;;;;;;;4821770;29;20058;-76
2022/03/13 08:00:39;;;;;;;4.40;4.00;;;;;;;;;;4817680;29;20054;-76
2022/03/13 08:03:07;;;;;;;7.65;5.25;;;;;;;;;;4817987;29;20065;-76
2022/03/13 08:05:35;;;;;;;9.48;4.72;;;;;;;;;;4800884;29;20476;-79
2022/03/13 08:08:05;;;;;;;5.60;4.97;;;;;;;;;;4816933;29;20400;-80
2022/03/13 08:10:33;;;;;;;6.53;5.90;;;;;;;;;;4817539;29;20405;-80
2022/03/13 08:13:01;;;;;;;7.00;5.13;;;;;;;;;;4817496;29;20058;-80
2022/03/13 08:15:29;;;;;;;8.57;6.47;;;;;;;;;;4801388;29;20062;-80
2022/03/13 08:17:57;;;;;;;6.97;5.25;;;;;;;;;;4817037;29;20070;-77
2022/03/13 08:20:25;;;;;;;5.38;4.47;;;;;;;;;;4824668;29;20053;-77
2022/03/13 08:22:53;;;;;;;8.88;6.95;;;;;;;;;;4835969;29;20492;-76
2022/03/13 08:25:21;;;;;;;8.32;4.70;;;;;;;;;;4834772;29;20061;-76
2022/03/13 08:27:49;;;;;;;8.75;5.85;;;;;;;;;;4835381;29;20412;-75
2022/03/13 08:30:17;;;;;;;8.18;5.20;;;;;;;;;;4835619;29;20136;-75
2022/03/13 08:32:45;;;;;;;8.35;7.50;;;;;;;;;;4834895;29;20575;-75
2022/03/13 08:35:13;;;;;;;8.57;6.07;;;;;;;;;;4832112;29;20057;-78
2022/03/13 08:37:43;;;;;;;7.72;6.95;;;;;;;;;;4816216;29;20412;-75
2022/03/13 08:40:11;;;;;;;10.45;5.38;;;;;;;;;;4816810;29;20050;-75
2022/03/13 08:42:40;;;;;;;8.80;5.05;;;;;;;;;;4817468;29;20058;-75
2022/03/13 08:45:11;;;;;;;13.27;6.55;;;;;;;;;;4817073;29;20069;-75
2022/03/13 08:47:39;;;;;;;38.17;5.50;;;;;;;;;;4830187;29;20049;-75
2022/03/13 08:50:08;;;;;;;9.70;5.70;;;;;;;;;;4834076;29;20054;-75
2022/03/13 08:52:37;;;;;;;7.22;6.07;;;;;;;;;;4822744;29;20079;-75
2022/03/13 08:55:08;;;;;;;10.18;6.57;;;;;;;;;;4833627;29;20404;-77
2022/03/13 08:57:37;;;;;;;10.88;6.80;;;;;;;;;;4832939;29;20053;-76
2022/03/13 09:00:05;;;;;;;6.93;5.93;;;;;;;;;;4822552;29;20058;-75
2022/03/13 09:02:34;;;;;;;7.30;6.35;;;;;;;;;;4834041;29;20069;-76
2022/03/13 09:05:02;;;;;;;5.93;4.47;;;;;;;;;;4838382;29;20360;-76
2022/03/13 09:07:30;;;;;;;4.78;4.28;;;;;;;;;;4836723;29;20069;-76
2022/03/13 09:09:58;;;;;;;8.30;6.47;;;;;;;;;;4819283;29;20054;-76
2022/03/13 09:12:26;;;;;;;9.40;5.38;;;;;;;;;;4819948;29;20076;-76
2022/03/13 09:14:54;;;;;;;9.38;6.95;;;;;;;;;;4820427;29;20058;-76
2022/03/13 09:17:22;;;;;;;6.82;6.22;;;;;;;;;;4820211;29;20050;-76
2022/03/13 09:19:50;;;;;;;7.65;5.95;;;;;;;;;;4819561;29;20404;-76
2022/03/13 09:22:18;;;;;;;5.70;4.75;;;;;;;;;;4819994;29;20051;-75
2022/03/13 09:24:46;;;;;;;7.22;5.53;;;;;;;;;;4825242;29;20058;-75
2022/03/13 09:27:14;;;;;;;12.32;5.88;;;;;;;;;;4838138;29;20057;-76
2022/03/13 09:29:42;;;;;;;7.07;5.55;;;;;;;;;;4838080;29;20058;-76
2022/03/13 09:32:10;;;;;;;14.85;7.70;;;;;;;;;;4838224;29;20073;-75
2022/03/13 09:34:39;;;;;;;8.25;5.70;;;;;;;;;;4838422;29;20058;-75
2022/03/13 09:37:07;;;;;;;6.95;6.15;;;;;;;;;;4837555;29;20056;-76
2022/03/13 09:39:36;;;;;;;13.27;6.22;;;;;;;;;;4837895;29;20058;-76
2022/03/13 09:42:04;;;;;;;8.02;7.20;;;;;;;;;;4837638;29;20054;-75
2022/03/13 09:44:32;;;;;;;10.57;5.30;;;;;;;;;;4837947;29;20058;-75
2022/03/13 09:47:00;;;;;;;14.52;7.18;;;;;;;;;;4838166;29;20057;-75
2022/03/13 09:49:29;;;;;;;10.93;7.97;;;;;;;;;;4831652;29;20054;-75
2022/03/13 09:51:57;;;;;;;9.38;5.60;;;;;;;;;;4819138;29;20057;-76
2022/03/13 09:54:25;;;;;;;10.32;6.88;;;;;;;;;;4820047;29;20477;-75
2022/03/13 09:56:53;;;;;;;8.75;6.40;;;;;;;;;;4818783;29;20050;-75
2022/03/13 09:59:21;;;;;;;7.80;6.80;;;;;;;;;;4819785;29;20065;-75
2022/03/13 10:01:49;;;;;;;8.90;7.13;;;;;;;;;;4819297;29;20042;-75
2022/03/13 10:04:17;;;;;;;17.88;7.82;;;;;;;;;;4819199;29;20883;-75
2022/03/13 10:07:07;;;;;;;13.90;7.43;;;;;;;;;;4819482;29;20057;-75
2022/03/13 10:09:35;;;;;;;10.52;6.70;;;;;;;;;;4818607;29;20413;-75
2022/03/13 10:12:13;;;;;;;9.30;6.85;;;;;;;;;;4818572;29;20054;-75
2022/03/13 10:15:01;;;;;;;13.40;6.25;;;;;;;;;;4818957;29;20886;-75
2022/03/13 10:17:30;;;;;;;9.25;7.05;;;;;;;;;;4819187;29;20066;-75
2022/03/13 10:20:14;;;;;;;11.27;7.63;;;;;;;;;;4818799;29;20058;-76
2022/03/13 10:22:42;;;;;;;7.40;6.68;;;;;;;;;;4819313;29;20381;-76
2022/03/13 10:25:13;;;;;;;8.38;6.68;;;;;;;;;;4818335;29;20065;-75
2022/03/13 10:27:43;;;;;;;15.37;9.80;;;;;;;;;;4819152;29;20054;-75
2022/03/13 10:30:11;;;;;;;11.57;6.35;;;;;;;;;;4818836;29;20051;-76
2022/03/13 10:32:39;;;;;;;21.45;8.43;;;;;;;;;;4818750;29;20054;-75
2022/03/13 10:35:07;;;;;;;7.80;6.10;;;;;;;;;;4819059;29;20401;-76
2022/03/13 10:37:42;;;;;;;11.73;7.95;;;;;;;;;;4818300;29;20069;-76
2022/03/13 10:40:15;;;;;;;16.48;8.90;;;;;;;;;;4818153;29;20054;-75
2022/03/13 10:42:44;;;;;;;11.57;8.27;;;;;;;;;;4819041;29;20066;-75
2022/03/13 10:45:15;;;;;;;13.70;7.65;;;;;;;;;;4802188;29;20058;-76
2022/03/13 10:47:43;;;;;;;9.65;5.70;;;;;;;;;;4828600;29;20050;-76
2022/03/13 10:50:11;;;;;;;10.57;7.18;;;;;;;;;;4825418;29;20058;-76
2022/03/13 10:52:42;;;;;;;15.95;8.40;;;;;;;;;;4818404;29;20082;-76
2022/03/13 10:55:18;;;;;;;8.77;6.40;;;;;;;;;;4818644;29;20046;-76
2022/03/13 10:57:54;;;;;;;14.07;6.45;;;;;;;;;;4818488;29;20061;-76
2022/03/13 11:00:22;;;;;;;11.23;6.18;;;;;;;;;;4818371;29;20053;-76
2022/03/13 11:02:51;;;;;;;8.80;6.03;;;;;;;;;;4818845;29;20078;-75
2022/03/13 11:05:20;;;;;;;10.65;6.97;;;;;;;;;;4801683;29;20046;-76
2022/03/13 11:07:53;;;;;;;11.65;7.40;;;;;;;;;;4818094;29;20055;-76
2022/03/13 11:10:21;;;;;;;13.43;7.20;;;;;;;;;;4818173;29;20058;-76
2022/03/13 11:12:51;;;;;;;15.50;9.18;;;;;;;;;;4817964;29;20046;-76
2022/03/13 11:15:19;;;;;;;11.05;7.50;;;;;;;;;;4818806;29;20066;-76
2022/03/13 11:17:48;;;;;;;11.15;4.70;;;;;;;;;;4817701;29;20055;-76
2022/03/13 11:20:18;;;;;;;9.27;7.72;;;;;;;;;;4818185;29;20050;-76
2022/03/13 11:22:46;;;;;;;11.80;7.15;;;;;;;;;;4817765;29;20062;-76
2022/03/13 11:25:14;;;;;;;9.70;8.30;;;;;;;;;;4826741;29;20073;-76
2022/03/13 11:27:43;;;;;;;12.60;6.75;;;;;;;;;;4836328;29;20062;-76
2022/03/13 11:30:13;;;;;;;10.23;5.80;;;;;;;;;;4835993;29;20539;-76
2022/03/13 11:32:50;;;;;;;11.48;6.63;;;;;;;;;;4835977;29;20524;-76
2022/03/13 11:35:18;;;;;;;10.13;7.78;;;;;;;;;;4836175;29;20057;-76
2022/03/13 11:37:47;;;;;;;10.73;7.43;;;;;;;;;;4835359;29;20057;-76
2022/03/13 11:40:17;;;;;;;8.90;7.30;;;;;;;;;;4835370;29;20050;-85
2022/03/13 11:42:52;;;;;;;11.05;7.65;;;;;;;;;;4836445;29;20062;-86
2022/03/13 11:45:31;;;;;;;17.05;9.35;;;;;;;;;;4819402;29;20053;-84
2022/03/13 11:48:05;;;;;;;11.88;7.70;;;;;;;;;;4835290;29;20389;-82
2022/03/13 11:50:52;;;;;;;9.95;7.65;;;;;;;;;;4805826;29;20066;-76
2022/03/13 11:53:21;;;;;;;11.43;8.27;;;;;;;;;;4817807;29;20091;-76
2022/03/13 11:56:10;;;;;;;10.10;6.60;;;;;;;;;;4816812;29;20051;-76
2022/03/13 11:58:42;;;;;;;16.02;8.02;;;;;;;;;;4817364;29;20167;-76
2022/03/13 12:01:21;;;;;;;13.57;8.70;;;;;;;;;;4800847;29;20054;-76
2022/03/13 12:04:03;;;;;;;10.02;7.20;;;;;;;;;;4807842;29;20663;-76
2022/03/13 12:06:43;;;;;;;9.18;6.43;;;;;;;;;;4800599;29;20069;-76
2022/03/13 12:09:16;;;;;;;11.80;7.97;;;;;;;;;;4816815;29;20061;-76
2022/03/13 12:11:47;;;;;;;9.18;6.72;;;;;;;;;;4801845;29;20425;-76
2022/03/13 12:14:16;;;;;;;10.53;7.30;;;;;;;;;;4810682;29;20096;-76
2022/03/13 12:16:45;;;;;;;12.80;8.10;;;;;;;;;;4834434;29;20657;-76
2022/03/13 12:19:16;;;;;;;14.68;10.35;;;;;;;;;;4810574;29;20087;-76
2022/03/13 12:21:46;;;;;;;13.88;9.05;;;;;;;;;;4828181;29;20058;-76
2022/03/13 12:24:28;;;;;;;12.13;7.40;;;;;;;;;;4830947;29;20054;-76
2022/03/13 12:27:29;;;;;;;10.75;7.40;;;;;;;;;;4834290;29;20042;-76
2022/03/13 12:29:58;;;;;;;12.43;6.53;;;;;;;;;;4834787;29;20065;-76
2022/03/13 12:32:33;;;;;;;11.48;9.23;;;;;;;;;;4827726;29;20055;-77
2022/03/13 12:35:05;;;;;;;7.43;5.68;;;;;;;;;;4831055;29;20054;-78
2022/03/13 12:37:33;;;;;;;9.63;7.07;;;;;;;;;;4837233;29;20070;-76
2022/03/13 12:40:02;;;;;;;12.93;7.68;;;;;;;;;;4838155;29;20385;-77
2022/03/13 12:42:34;;;;;;;9.38;5.72;;;;;;;;;;4829025;29;20416;-77
2022/03/13 12:45:10;;;;;;;11.23;5.53;;;;;;;;;;4820401;29;20054;-76
2022/03/13 12:47:42;;;;;;;12.68;8.95;;;;;;;;;;4830182;29;20065;-77
2022/03/13 12:50:11;;;;;;;11.63;7.32;;;;;;;;;;4827617;29;20058;-77
2022/03/13 12:52:41;;;;;;;8.60;6.13;;;;;;;;;;4825102;29;20054;-77
2022/03/13 12:55:09;;;;;;;16.10;7.95;;;;;;;;;;4834355;29;20061;-77
2022/03/13 12:57:38;;;;;;;8.25;6.28;;;;;;;;;;4821760;29;20053;-77
2022/03/13 13:00:09;;;;;;;11.60;5.60;;;;;;;;;;4821953;29;20560;-77
2022/03/13 13:02:37;;;;;;;8.38;5.97;;;;;;;;;;4839206;29;20516;-77
2022/03/13 13:05:12;;;;;;;13.80;6.88;;;;;;;;;;4838489;29;20061;-77
2022/03/13 13:07:41;;;;;;;10.55;7.95;;;;;;;;;;4838606;29;20058;-77
2022/03/13 13:10:12;;;;;;;8.65;5.68;;;;;;;;;;4820884;29;20076;-77
2022/03/13 13:12:40;;;;;;;12.73;7.90;;;;;;;;;;4838366;29;20412;-77
2022/03/13 13:15:10;;;;;;;9.07;6.32;;;;;;;;;;4838884;29;20057;-77
2022/03/13 13:17:38;;;;;;;7.22;4.78;;;;;;;;;;4838216;29;20058;-78
2022/03/13 13:20:07;;;;;;;8.75;6.00;;;;;;;;;;4837590;29;20053;-77
2022/03/13 13:22:40;;;;;;;9.88;6.13;;;;;;;;;;4838685;29;20057;-77
2022/03/13 13:25:16;;;;;;;10.52;7.05;;;;;;;;;;4837287;29;20050;-77
2022/03/13 13:27:45;;;;;;;5.97;4.68;;;;;;;;;;4838177;29;20053;-77
2022/03/13 13:30:14;;;;;;;9.30;6.10;;;;;;;;;;4836977;29;20054;-77
2022/03/13 13:32:53;;;;;;;12.52;9.45;;;;;;;;;;4838036;29;20050;-77
2022/03/13 13:35:24;;;;;;;10.48;5.80;;;;;;;;;;4821546;29;20076;-77
2022/03/13 13:37:55;;;;;;;20.70;7.20;;;;;;;;;;4836799;29;20061;-78
2022/03/13 13:40:24;;;;;;;6.97;5.65;;;;;;;;;;4837218;29;20062;-78
2022/03/13 13:42:59;;;;;;;9.25;6.38;;;;;;;;;;4838008;29;20058;-78
2022/03/13 13:45:27;;;;;;;7.80;5.65;;;;;;;;;;4837372;29;20799;-78
2022/03/13 13:48:15;;;;;;;8.32;6.50;;;;;;;;;;4837483;29;20053;-77
2022/03/13 13:50:43;;;;;;;9.73;5.82;;;;;;;;;;4823086;29;20416;-79
2022/03/13 13:53:14;;;;;;;;;;;;;;;;;;4819332;29;20047;-79
2022/03/13 13:55:42;;;;;;;7.07;5.85;;;;;;;;;;4802861;29;19936;-79
2022/03/13 13:58:15;;;;;;;8.05;6.88;;;;;;;;;;4820955;29;20787;-78
2022/03/13 14:00:45;;;;;;;11.43;7.85;;;;;;;;;;4831460;29;20967;-78
2022/03/13 14:03:13;;;;;;;8.57;6.25;;;;;;;;;;4814372;29;20049;-76
2022/03/13 14:05:42;;;;;;;9.60;5.55;;;;;;;;;;4829788;29;20078;-77
2022/03/13 14:08:21;;;;;;;9.77;7.15;;;;;;;;;;4837177;29;20589;-77
2022/03/13 14:10:49;;;;;;;10.20;5.18;;;;;;;;;;4837178;29;20069;-85
2022/03/13 14:13:17;;;;;;;10.75;8.07;;;;;;;;;;4821122;29;20046;-84
2022/03/13 14:15:44;;;;;;;8.60;6.38;;;;;;;;;;4837736;29;20050;-83
2022/03/13 14:18:13;;;;;;;10.63;7.07;;;;;;;;;;4820604;29;20058;-84
2022/03/13 14:20:42;;;;;;;10.13;7.28;;;;;;;;;;4836823;29;20795;-78
2022/03/13 14:23:10;;;;;;;9.13;6.07;;;;;;;;;;4836819;29;20419;-78
2022/03/13 14:25:41;;;;;;;11.65;7.72;;;;;;;;;;4830907;29;20114;-77
2022/03/13 14:28:11;;;;;;;14.68;10.65;;;;;;;;;;4836564;29;20929;-77
2022/03/13 14:30:39;;;;;;;8.82;7.78;;;;;;;;;;4837045;29;20054;-76
2022/03/13 14:33:07;;;;;;;11.75;7.10;;;;;;;;;;4835612;29;20050;-77
2022/03/13 14:35:35;;;;;;;10.85;8.63;;;;;;;;;;4837090;29;20777;-77
2022/03/13 14:38:04;;;;;;;16.63;6.70;;;;;;;;;;4836749;29;20046;-76
2022/03/13 14:40:43;;;;;;;7.38;6.00;;;;;;;;;;4831180;29;20061;-77
2022/03/13 14:43:11;;;;;;;;;;;;;;;;;;4837365;29;20049;-77
2022/03/13 14:45:40;;;;;;;8.13;7.25;;;;;;;;;;4836541;29;19928;-76
2022/03/13 14:48:08;;;;;;;8.50;7.45;;;;;;;;;;4836462;29;20054;-77
2022/03/13 14:50:52;;;;;;;10.85;8.40;;;;;;;;;;4831894;29;20077;-75
2022/03/13 14:53:20;;;;;;;7.78;7.07;;;;;;;;;;4836445;29;20046;-75
2022/03/13 14:55:49;;;;;;;10.02;7.15;;;;;;;;;;4835567;29;20045;-76
2022/03/13 14:58:17;;;;;;;15.80;6.55;;;;;;;;;;4835950;29;20056;-76